Terminal Aerodrome Forecast
Issued by NWS

Home | Current Version | Previous Version | Text Only | Print | Product List | Glossary Off
Versions: 1 2 3 4 5 6 7 8 9 10 11 12 13 14 15 16 17 18 19 20 21 22 23 24

060
FTUS43 KTOP 230507 AAB
TAFFOE
TAF AMD
KFOE 230507Z 2305/2324 19004KT P6SM SCT060
      TEMPO 2306/2309 3SM BR
     FM230900 30006KT P6SM VCSH BKN040
     FM231000 33009KT P6SM VCSH BKN050
     FM231500 34014KT P6SM BKN100=

USA.gov is the U.S. government's official web portal to all federal, state and local government web resources and services.